• Join FlightAware (Why Join?)
  • Login
  • US Flag 
02:47PM EDT


 

Airport Tracker/Info


-or-


 

Live Flight TrackerFlight Track Log ✈ UAL407 ✈ 14-May-2013 ✈ KORD - KPDX

Flight Track Log - Related Links

Times and Time Zones

All times are in EDT time to prevent confusion due to time zone crossing. See the UAL407 flight status page for this flight to view local times or setup timezone preferences in your user account.

Time Position Orientation Groundspeed Altitude Reporting Facility
EDT Latitude Longitude Course Direction KTS MPH feet Rate Location/Type
10:07PM 41.9333 -87.9167 261° West 159 183 2,400  Level Chicago TRACON
10:08PM 41.9000 -87.9500 217° Southwest 151 174 4,300 1,320 Climbing Chicago TRACON
10:09PM 41.9330 -88.3349 255° West  Level FlightAware Approximate
10:09PM 41.8719 -88.0642 252° West 237 273 6,200  Level Chicago Center
10:10PM 41.9151 -88.4799 261° West  Level FlightAware Approximate
10:10PM 41.8686 -88.1719 268° West 242 278 9,700  Level Chicago Center
10:11PM 41.8980 -88.6261 261° West  Level FlightAware Approximate
10:11PM 41.8636 -88.2678 266° West 256 295 12,300  Level Chicago Center
10:12PM 41.8808 -88.7722 261° West  Level FlightAware Approximate
10:12PM 41.8578 -88.3694 266° West 271 312 14,700  Level Chicago Center
10:13PM 41.8508 -88.4781 265° West 291 335 16,100 1,440 Climbing Chicago Center
10:14PM 41.8461 -88.6050 267° West 337 388 17,700 1,860 Climbing Chicago Center
10:15PM 41.8403 -88.7361 267° West 353 406 20,000 1,980 Climbing Chicago Center
10:16PM 41.8361 -88.8736 268° West 367 422 21,800 1,860 Climbing Chicago Center
10:18PM 41.8364 -89.0403 270° West 376 433 23,900 1,680 Climbing Chicago Center
10:19PM 41.8344 -89.1819 269° West 382 440 25,300 1,320 Climbing Chicago Center
10:20PM 41.8328 -89.3286 269° West 395 455 26,600 1,140 Climbing Chicago Center
10:21PM 41.8325 -89.4789 270° West 404 465 27,700 1,140 Climbing Chicago Center
10:22PM 41.8286 -89.6308 268° West 410 472 29,000 1,200 Climbing Chicago Center
10:23PM 41.8267 -89.7856 269° West 417 480 30,200 1,200 Climbing Chicago Center
10:24PM 41.8261 -89.9497 270° West 422 486 31,500 1,260 Climbing Chicago Center
10:25PM 41.8236 -90.1039 269° West 418 481 32,800 720 Climbing Chicago Center
10:26PM 41.8203 -90.2567 268° West 414 476 33,000 60 Climbing Chicago Center
10:27PM 41.8172 -90.4367 269° West 408 470 33,000  Level Chicago Center
10:28PM 41.8133 -90.5906 268° West 414 476 33,000  Level Chicago Center
10:29PM 41.8089 -90.7511 268° West 434 499 33,000  Level Chicago Center
10:30PM 41.8039 -90.9042 268° West 419 482 33,000  Level Chicago Center
10:31PM 41.8008 -91.0569 269° West 414 476 33,000  Level Chicago Center
10:32PM 41.7969 -91.2092 268° West 413 475 33,000  Level Chicago Center
10:33PM 41.7925 -91.3622 268° West 413 475 33,000  Level Chicago Center
10:34PM 41.7875 -91.5156 268° West 414 476 33,000  Level Chicago Center
10:35PM 41.7822 -91.6997 268° West 415 478 33,000 180 Level Chicago Center
10:36PM 41.7769 -91.8536 267° West 415 478 33,400 480 Climbing Chicago Center
10:37PM 41.7719 -92.0067 268° West 416 479 34,000 240 Climbing Chicago Center
10:38PM 41.7661 -92.1578 267° West 412 474 34,000  Level Chicago Center
10:39PM 41.7608 -92.3083 267° West 409 471 34,000 -60 Level Chicago Center
10:40PM 41.7558 -92.4581 267° West 406 467 33,900 -60 Descending Chicago Center
10:41PM 41.7486 -92.6092 266° West 410 472 33,900 60 Level Chicago Center
10:42PM 41.7461 -92.7025 268° West 411 473 34,000 60 Climbing Minneapolis Center
10:43PM 41.7386 -92.8692 267° West 409 471 34,000  Level Minneapolis Center
10:44PM 41.7322 -93.0186 267° West 408 470 34,000  Level Minneapolis Center
10:45PM 41.7256 -93.1714 267° West 412 474 34,000  Level Minneapolis Center
10:46PM 41.7186 -93.3217 267° West 411 473 34,000  Level Minneapolis Center
10:47PM 41.7111 -93.4736 266° West 413 475 34,000  Level Minneapolis Center
10:48PM 41.7036 -93.6233 266° West 410 472 34,000  Level Minneapolis Center
10:49PM 41.6964 -93.7725 266° West 408 470 34,000  Level Minneapolis Center
10:50PM 41.6900 -93.9281 267° West 412 474 34,000  Level Minneapolis Center
10:51PM 41.6800 -94.1111 266° West 412 474 34,000  Level Minneapolis Center
10:52PM 41.6714 -94.2636 266° West 412 474 34,000  Level Minneapolis Center
10:53PM 41.6622 -94.4153 265° West 412 474 34,000 -60 Level Minneapolis Center
10:54PM 41.6550 -94.5661 266° West 408 470 33,900  Descending Minneapolis Center
10:55PM 41.6464 -94.7181 266° West 410 472 34,000  Climbing Minneapolis Center
10:56PM 41.6369 -94.8711 265° West 411 473 34,000  Level Minneapolis Center
10:57PM 41.6294 -95.0236 266° West 411 473 34,000  Level Minneapolis Center
10:58PM 41.6186 -95.1758 265° West 412 474 34,000  Level Minneapolis Center
10:59PM 41.6092 -95.3281 265° West 413 475 34,000  Level Minneapolis Center
11:00PM 41.5997 -95.4806 265° West 413 475 34,000  Level Minneapolis Center
11:01PM 41.5883 -95.6461 265° West 415 478 34,000  Level Minneapolis Center
11:02PM 41.5778 -95.8008 265° West 416 479 34,000  Level Minneapolis Center
11:03PM 41.5664 -95.9547 264° West 418 481 34,000  Level Minneapolis Center
11:04PM 41.5572 -96.1078 265° West 415 478 34,000  Level Minneapolis Center
11:05PM 41.5453 -96.2606 264° West 414 476 34,000  Level Minneapolis Center
11:06PM 41.5350 -96.4219 265° West 412 474 34,000  Level Minneapolis Center
11:07PM 41.5236 -96.5714 264° West 409 471 34,000  Level Minneapolis Center
11:08PM 41.5114 -96.7228 264° West 411 473 34,000  Level Minneapolis Center
11:09PM 41.4994 -96.8756 264° West 415 478 34,000  Level Minneapolis Center
11:10PM 41.4872 -97.0283 264° West 415 478 34,000  Level Minneapolis Center
11:11PM 41.4731 -97.2122 264° West 417 480 34,000 360 Level Minneapolis Center
11:12PM 41.4608 -97.3658 264° West 417 480 34,800 780 Climbing Minneapolis Center
11:13PM 41.4469 -97.5200 263° West 419 482 35,600 540 Climbing Minneapolis Center
11:14PM 41.4353 -97.6764 264° West 423 487 36,000 180 Climbing Minneapolis Center
11:15PM 41.4222 -97.8294 264° West 418 481 36,000  Level Minneapolis Center
11:16PM 41.4089 -97.9850 264° West 421 484 36,000  Level Minneapolis Center
11:17PM 41.3958 -98.1325 263° West 420 483 36,000  Level Minneapolis Center
11:18PM 41.3822 -98.2872 263° West 421 484 36,000 -60 Level Minneapolis Center
11:19PM 41.3864 -98.4400 272° West 417 480 35,900 -60 Descending Minneapolis Center
11:20PM 41.4064 -98.6017 279° West 420 483 35,900  Level Minneapolis Center
11:21PM 41.4242 -98.7536 279° West 418 481 36,000  Climbing Minneapolis Center
11:22PM 41.4431 -98.9086 279° West 420 483 36,000  Level Minneapolis Center
11:23PM 41.4614 -99.0644 279° West 423 487 36,000  Level Minneapolis Center
11:24PM 41.4756 -99.1758 280° West 428 493 36,000  Level Denver Center
11:25PM 41.4931 -99.3319 279° West 428 493 36,000  Level Denver Center
11:26PM 41.5114 -99.4889 279° West 430 495 36,000  Level Denver Center
11:27PM 41.5286 -99.6447 278° West 428 493 36,000 -60 Level Denver Center
11:28PM 41.5472 -99.8072 279° West 427 491 35,900  Descending Denver Center
11:29PM 41.5633 -99.9575 278° West 427 491 36,000  Climbing Denver Center
11:30PM 41.5786 -100.1331 277° West 428 493 36,000  Level Denver Center
11:31PM 41.5850 -100.2817 273° West 424 488 36,000  Level Denver Center
11:32PM 41.5900 -100.4306 273° West 422 486 36,000  Level Denver Center
11:33PM 41.5961 -100.6025 273° West 419 482 36,000  Level Denver Center
11:34PM 41.6028 -100.7494 274° West 416 479 36,000 -60 Level Denver Center
11:35PM 41.6106 -100.8956 274° West 415 478 35,900  Descending Denver Center
11:36PM 41.6211 -101.0653 275° West 413 475 36,000  Climbing Denver Center
11:37PM 41.6325 -101.2125 276° West 416 479 36,000  Level Denver Center
11:38PM 41.6550 -101.3814 280° West 415 478 36,000  Level Denver Center
11:39PM 41.6728 -101.5278 279° West 418 481 36,000  Level Denver Center
11:40PM 41.7017 -101.6722 285° West 422 486 36,000  Level Denver Center
11:41PM 41.7489 -101.8347 291° West 424 488 36,000 -60 Level Denver Center
11:42PM 41.7875 -101.9756 290° West 423 487 35,900 -60 Descending Denver Center
11:43PM 41.8275 -102.1169 291° West 425 489 35,900  Level Denver Center
11:44PM 41.8739 -102.2883 290° West 432 497 36,000  Climbing Denver Center
11:45PM 41.9144 -102.4317 291° West 431 496 36,000  Level Denver Center
11:46PM 41.9497 -102.5769 288° West 428 493 36,000  Level Denver Center
11:47PM 41.9733 -102.7508 280° West 424 488 36,000  Level Denver Center
11:48PM 41.9961 -102.8981 282° West 422 486 36,000  Level Denver Center
11:49PM 42.0169 -103.0444 281° West 418 481 36,000 -60 Level Denver Center
11:50PM 42.0575 -103.2083 288° West 415 478 35,900 -60 Descending Denver Center
11:51PM 42.0964 -103.3458 291° West 412 474 35,900  Level Denver Center
11:52PM 42.1403 -103.5072 290° West 412 474 35,900  Level Denver Center
11:53PM 42.1772 -103.6472 290° West 414 476 36,000  Climbing Denver Center
11:54PM 42.2147 -103.7883 290° West 416 479 36,000  Level Denver Center
11:55PM 42.2583 -103.9517 290° West 415 478 36,000  Level Denver Center
11:56PM 42.2950 -104.0917 290° West 414 476 36,000 -60 Level Denver Center
11:57PM 42.3322 -104.2317 290° West 413 475 35,900  Descending Denver Center
11:58PM 42.3747 -104.3958 289° West 414 476 36,000  Climbing Denver Center
11:59PM 42.4108 -104.5392 289° West 415 478 36,000  Level Denver Center
12:00AM 42.4475 -104.6842 289° West 417 480 36,000  Level Denver Center
12:01AM 42.4786 -104.8058 289° West 420 483 36,000  Level Denver Center
12:02AM 42.5286 -104.9925 290° West 412 474 36,000  Level Denver Center
12:03AM 42.5633 -105.1328 289° West 409 471 36,000  Level Denver Center
12:04AM 42.5983 -105.2706 289° West 405 466 36,000 -60 Level Denver Center
12:05AM 42.6383 -105.4322 289° West 405 466 35,900 -60 Descending Denver Center
12:06AM 42.6731 -105.5686 289° West 400 460 35,900  Level Denver Center
12:07AM 42.7114 -105.7292 288° West 401 461 35,900  Level Denver Center
12:08AM 42.7472 -105.8706 289° West 411 473 36,000  Climbing Denver Center
12:09AM 42.7808 -106.0106 288° West 408 470 36,000  Level Denver Center
12:11AM 42.8203 -106.1767 288° West 413 475 36,000  Level Denver Center
12:12AM 42.8547 -106.3189 288° West 413 475 36,000  Level Denver Center
12:13AM 42.8883 -106.4600 288° West 410 472 36,000 -60 Level Denver Center
12:14AM 42.9275 -106.6228 288° West 406 467 35,900 -60 Descending Denver Center
12:15AM 42.9614 -106.7611 289° West 403 464 35,900  Level Denver Center
12:16AM 42.9939 -106.8994 288° West 401 461 35,900  Level Denver Center
12:17AM 43.0308 -107.0614 287° West 400 460 36,000  Climbing Denver Center
12:18AM 43.0631 -107.2011 288° West 402 463 36,000  Level Denver Center
12:19AM 43.0978 -107.3536 287° West 404 465 36,000  Level Denver Center
12:20AM 43.1300 -107.4942 287° West 405 466 36,000  Level Denver Center
12:20AM 43.1556 -107.6128 286° West 404 465 36,000  Level Salt Lake Center
12:21AM 43.1872 -107.7519 287° West 401 461 36,000  Level Salt Lake Center
12:22AM 43.2192 -107.8908 288° West 398 458 36,000  Level Salt Lake Center
12:23AM 43.2556 -108.0544 287° West 401 461 36,000  Level Salt Lake Center
12:24AM 43.2856 -108.1922 287° West 396 456 36,000  Level Salt Lake Center
12:25AM 43.3167 -108.3325 287° West 399 459 36,000  Level Salt Lake Center
12:26AM 43.3522 -108.4967 287° West 401 461 36,000  Level Salt Lake Center
12:27AM 43.3828 -108.6394 286° West 405 466 36,000  Level Salt Lake Center
12:29AM 43.4186 -108.8061 287° West 407 468 36,000  Level Salt Lake Center
12:30AM 43.4500 -108.9497 287° West 409 471 36,000  Level Salt Lake Center
12:31AM 43.4797 -109.0933 286° West 408 470 36,000 -60 Level Salt Lake Center
12:32AM 43.5144 -109.2592 286° West 405 466 35,900  Descending Salt Lake Center
12:33AM 43.5450 -109.4050 286° West 410 472 36,000  Climbing Salt Lake Center
12:34AM 43.5742 -109.5467 286° West 407 468 36,000  Level Salt Lake Center
12:35AM 43.6092 -109.7183 286° West 414 476 36,000  Level Salt Lake Center
12:36AM 43.6397 -109.8647 286° West 415 478 36,000  Level Salt Lake Center
12:37AM 43.6697 -110.0097 286° West 410 472 36,000 -60 Level Salt Lake Center
12:38AM 43.7033 -110.1775 286° West 407 468 35,900  Descending Salt Lake Center
12:39AM 43.7319 -110.3206 286° West 403 464 36,000  Climbing Salt Lake Center
12:40AM 43.7606 -110.4636 286° West 403 464 36,000  Level Salt Lake Center
12:41AM 43.7936 -110.6336 285° West 408 470 36,000 -60 Level Salt Lake Center
12:42AM 43.8219 -110.7750 286° West 402 463 35,900  Descending Salt Lake Center
12:43AM 43.8503 -110.9203 285° West 406 467 36,000  Climbing Salt Lake Center
12:44AM 43.8817 -111.0897 284° West 406 467 36,000  Level Salt Lake Center
12:45AM 43.9092 -111.2328 285° West 404 465 36,000 -60 Level Salt Lake Center
12:46AM 43.9347 -111.3758 284° West 400 460 35,900 -60 Descending Salt Lake Center
12:47AM 43.9667 -111.5433 285° West 400 460 35,900  Level Salt Lake Center
12:48AM 43.9942 -111.6906 285° West 405 466 36,000  Climbing Salt Lake Center
12:49AM 44.0211 -111.8397 284° West 413 475 36,000  Level Salt Lake Center
12:50AM 44.0536 -112.0136 285° West 415 478 36,000  Level Salt Lake Center
12:51AM 44.0792 -112.1592 284° West 406 467 36,000 -60 Level Salt Lake Center
12:52AM 44.1067 -112.3075 285° West 410 472 35,900 -60 Descending Salt Lake Center
12:53AM 44.1394 -112.4806 285° West 414 476 35,900  Level Salt Lake Center
12:54AM 44.1678 -112.6289 285° West 414 476 36,000  Climbing Salt Lake Center
12:55AM 44.1936 -112.7775 284° West 413 475 36,000  Level Salt Lake Center
12:56AM 44.2264 -112.9522 285° West 415 478 36,000  Level Salt Lake Center
12:57AM 44.2533 -113.1031 284° West 418 481 36,000  Level Salt Lake Center
12:58AM 44.2817 -113.2536 285° West 417 480 36,000 -60 Level Salt Lake Center
12:59AM 44.3122 -113.4286 284° West 416 479 35,900 -60 Descending Salt Lake Center
01:00AM 44.3386 -113.5789 284° West 416 479 35,900  Level Salt Lake Center
01:01AM 44.3650 -113.7281 284° West 414 476 35,900  Level Salt Lake Center
01:02AM 44.3944 -113.9031 283° West 416 479 36,000  Climbing Salt Lake Center
01:03AM 44.4228 -114.0653 284° West 417 480 36,000  Level Salt Lake Center
01:04AM 44.4500 -114.2164 284° West 418 481 36,000 -60 Level Salt Lake Center
01:05AM 44.4764 -114.3653 284° West 414 476 35,900 -60 Descending Salt Lake Center
01:06AM 44.5056 -114.5406 283° West 414 476 35,900  Level Salt Lake Center
01:07AM 44.5314 -114.6908 284° West 415 478 36,000  Climbing Salt Lake Center
01:08AM 44.5561 -114.8425 283° West 416 479 36,000  Level Salt Lake Center
01:09AM 44.5825 -114.9936 284° West 417 480 36,000  Level Salt Lake Center
01:10AM 44.6114 -115.1700 283° West 416 479 36,000  Level Salt Lake Center
01:11AM 44.6356 -115.3219 283° West 417 480 36,000  Level Salt Lake Center
01:12AM 44.6603 -115.4722 283° West 416 479 36,000  Level Salt Lake Center
01:13AM 44.6886 -115.6475 283° West 414 476 36,000  Level Salt Lake Center
01:14AM 44.7125 -115.7950 283° West 409 471 36,000 -60 Level Salt Lake Center
01:15AM 44.7392 -115.9656 282° West 404 465 35,900 -60 Descending Salt Lake Center
01:16AM 44.7617 -116.1106 282° West 401 461 35,900  Level Salt Lake Center
01:17AM 44.7844 -116.2556 283° West 400 460 36,000  Climbing Salt Lake Center
01:18AM 44.8097 -116.4272 282° West 403 464 36,000  Level Salt Lake Center
01:19AM 44.8325 -116.5742 282° West 403 464 36,000  Level Salt Lake Center
01:20AM 44.8544 -116.7211 282° West 403 464 36,000  Level Salt Lake Center
01:21AM 44.8800 -116.8931 282° West 402 463 36,000  Level Salt Lake Center
01:22AM 44.9008 -117.0408 281° West 402 463 36,000  Level Salt Lake Center
01:23AM 44.9158 -117.1408 282° West 404 465 36,000  Level Seattle Center
01:24AM 44.9408 -117.3147 282° West 405 466 36,000  Level Seattle Center
01:25AM 44.9625 -117.4650 282° West 408 470 36,000  Level Seattle Center
01:26AM 44.9831 -117.6139 281° West 405 466 36,000  Level Seattle Center
01:26AM 44.9900 -117.6619 282° West 404 465 36,000  Level Salt Lake Center
01:27AM 45.0144 -117.8331 281° West 399 459 36,000 -60 Level Salt Lake Center
01:28AM 45.0281 -117.9300 281° West 396 456 35,900  Descending Seattle Center
01:29AM 45.0469 -118.0769 280° West 395 455 36,000  Climbing Seattle Center
01:29AM 45.0544 -118.1272 282° West 395 455 35,900  Descending Salt Lake Center
01:30AM 45.0747 -118.2772 281° West 392 451 36,000  Climbing Salt Lake Center
01:31AM 45.0903 -118.3969 280° West 390 449 36,000 -180 Level Seattle Center
01:32AM 45.1100 -118.5450 281° West 386 444 35,700 -600 Descending Seattle Center
01:33AM 45.1294 -118.6922 281° West 383 441 34,800 -900 Descending Seattle Center
01:34AM 45.1489 -118.8422 280° West 388 447 34,000 -420 Descending Seattle Center
01:35AM 45.1692 -118.9942 281° West 393 452 34,000  Level Seattle Center
01:36AM 45.1886 -119.1447 280° West 393 452 34,000  Level Seattle Center
01:37AM 45.2064 -119.2947 280° West 389 448 34,000  Level Seattle Center
01:38AM 45.2256 -119.4475 280° West 394 453 34,000  Level Seattle Center
01:39AM 45.2442 -119.5972 280° West 390 449 34,000  Level Seattle Center
01:40AM 45.2611 -119.7456 279° West 385 443 34,000 -60 Level Seattle Center
01:41AM 45.2792 -119.8953 280° West 389 448 33,900  Descending Seattle Center
01:42AM 45.2967 -120.0447 280° West 389 448 34,000 -120 Climbing Seattle Center
01:43AM 45.3183 -120.2258 280° West 390 449 33,700 -1,140 Descending Seattle Center
01:44AM 45.3356 -120.3758 279° West 389 448 31,700 -2,040 Descending Seattle Center
01:45AM 45.3528 -120.5222 280° West 382 440 29,600 -2,040 Descending Seattle Center
01:46AM 45.3675 -120.6642 278° West 368 423 27,600 -1,980 Descending Seattle Center
01:47AM 45.3836 -120.8033 279° West 361 415 25,700 -1,920 Descending Seattle Center
01:48AM 45.3981 -120.9386 279° West 349 402 23,800 -1,920 Descending Seattle Center
01:49AM 45.4133 -121.0675 280° West 335 386 21,900 -1,800 Descending Seattle Center
01:50AM 45.4261 -121.1950 278° West 327 376 20,200 -1,800 Descending Seattle Center
01:51AM 45.4375 -121.2611 284° West 325 374 19,200 -1,800 Descending Seattle Center
01:51AM 45.4414 -121.3147 276° West 311 358 18,400 -1,800 Descending Seattle Center
01:52AM 45.4536 -121.3869 284° West 305 351 17,400 -1,800 Descending Seattle Center
01:52AM 45.4564 -121.4356 275° West 310 357 16,600 -1,800 Descending Seattle Center
01:53AM 45.4678 -121.5047 283° West 301 346 15,600 -1,920 Descending Seattle Center
01:53AM 45.4692 -121.5511 272° West 300 345 14,700 -2,280 Descending Seattle Center
01:54AM 45.4817 -121.6317 283° West 304 350 13,100 -2,100 Descending Seattle Center
01:54AM 45.4847 -121.6706 276° West 306 352 12,600 -1,800 Descending Seattle Center
01:55AM 45.4961 -121.7522 281° West 308 354 11,300 -1,800 Descending Seattle Center
01:55AM 45.4978 -121.7883 274° West 304 350 10,800 -1,320 Descending Seattle Center
01:56AM 45.5039 -121.8725 276° West 275 316 10,000 -1,140 Descending Seattle Center
01:56AM 45.5022 -121.8992 265° West 282 325 9,700 -1,920 Descending Seattle Center
01:57AM 45.5047 -121.9803 273° West 265 305 8,100 -2,580 Descending Seattle Center
01:57AM 45.5053 -122.0175 271° West 265 305 7,100 -2,100 Descending Seattle Center
01:58AM 45.5067 -122.0844 272° West 263 303 6,000 -1,620 Descending Seattle Center
01:58AM 45.5081 -122.1228 273° West 267 307 5,500 -540 Descending Seattle Center
01:59AM 45.5089 -122.1792 271° West 236 272 5,500 -300 Level Seattle Center
01:59AM 45.5100 -122.2108 273° West 235 270 5,200 -600 Descending Seattle Center
02:00AM 45.5103 -122.2497 271° West 188 216 5,000 -840 Descending Seattle Center
02:00AM 45.5117 -122.2844 273° West 196 226 4,400 -1,200 Descending Seattle Center
02:01AM 45.5111 -122.3172 269° West 183 211 3,900 -1,140 Descending Seattle Center
02:01AM 45.5125 -122.3589 273° West 189 217 3,300 -900 Descending Seattle Center
02:02AM 45.5128 -122.3783 271° West 180 207 3,100 -900 Descending Seattle Center
02:02AM 45.5244 -122.4175 293° West 161 185 2,400 -1,020 Descending Seattle Center
02:03AM 45.5308 -122.4356 297° West 131 151 2,100 -720 Descending Seattle Center
02:03AM 45.5436 -122.4617 305° West 143 165 1,700 -600 Descending Seattle Center
02:04AM 45.5481 -122.4778 292° West 117 135 1,500 -600 Descending Seattle Center
02:04AM 45.5594 -122.5022 304° West 128 147 1,100 -600 Descending Seattle Center
02:05AM 45.5658 -122.5231 294° West 119 137 800 -720 Descending Seattle Center
02:05AM 45.5750 -122.5447 301° West 123 142 400 -480 Descending Seattle Center
02:06AM 45.5917 -122.5847 301° West 123 142 100 -300 Descending Seattle Center